createdAt,value
2023-01-15T00:01:49.481Z,98867.00
2023-01-15T00:04:52.991Z,98863.31
2023-01-15T00:07:56.975Z,98833.44
2023-01-15T00:10:59.753Z,98837.88
2023-01-15T00:14:03.001Z,98842.53
2023-01-15T00:17:05.787Z,98842.28
2023-01-15T00:20:10.033Z,98823.56
2023-01-15T00:23:36.258Z,98809.16
2023-01-15T00:26:57.446Z,98814.47
2023-01-15T00:30:00.210Z,98809.78
2023-01-15T00:33:03.821Z,98795.28
2023-01-15T00:36:07.229Z,98790.09
2023-01-15T00:39:11.385Z,98797.78
2023-01-15T00:42:14.173Z,98800.94
2023-01-15T00:45:16.844Z,98781.00
2023-01-15T00:48:19.844Z,98774.72
2023-01-15T00:51:22.584Z,98763.56
2023-01-15T00:54:29.826Z,98775.16
2023-01-15T00:57:32.518Z,98749.59
2023-01-15T01:00:35.255Z,98754.16
2023-01-15T01:03:37.968Z,98758.59
2023-01-15T01:06:43.003Z,98750.22
2023-01-15T01:09:49.271Z,98755.88
2023-01-15T01:12:56.166Z,98764.00
2023-01-15T01:15:59.331Z,98743.94
2023-01-15T01:19:03.712Z,98730.94
2023-01-15T01:22:06.440Z,98739.72
2023-01-15T01:25:11.732Z,98738.53
2023-01-15T01:28:14.572Z,98755.13
2023-01-15T01:31:21.270Z,98747.00
2023-01-15T01:34:23.992Z,98745.16
2023-01-15T01:37:26.707Z,98730.84
2023-01-15T01:40:30.683Z,98732.06
2023-01-15T01:43:54.496Z,98733.34
2023-01-15T01:46:57.866Z,98719.69
2023-01-15T01:50:04.268Z,98720.75
2023-01-15T01:53:11.833Z,98710.16
2023-01-15T01:56:17.699Z,98732.03
2023-01-15T01:59:22.719Z,98702.91
2023-01-15T02:02:29.682Z,98714.38
2023-01-15T02:05:35.101Z,98711.66
2023-01-15T02:08:39.563Z,98711.66
2023-01-15T02:11:44.269Z,98707.13
2023-01-15T02:14:54.862Z,98705.38
2023-01-15T02:18:03.342Z,98704.75
2023-01-15T02:21:11.970Z,98702.03
2023-01-15T02:24:23.660Z,98692.63
2023-01-15T02:27:28.734Z,98707.56
2023-01-15T02:30:36.535Z,98696.72
2023-01-15T02:33:42.313Z,98695.75
2023-01-15T02:36:58.220Z,98698.56
2023-01-15T02:40:03.159Z,98692.09
2023-01-15T02:43:08.897Z,98688.50
2023-01-15T02:46:12.745Z,98687.28
2023-01-15T02:49:20.492Z,98686.31
2023-01-15T02:52:30.678Z,98684.38
2023-01-15T02:55:37.546Z,98686.22
2023-01-15T02:58:44.870Z,98697.81
2023-01-15T03:01:52.665Z,98690.78
2023-01-15T03:05:03.725Z,98688.94
2023-01-15T03:08:09.623Z,98684.16
2023-01-15T03:11:14.281Z,98692.28
2023-01-15T03:14:22.901Z,98682.19
2023-01-15T03:17:37.353Z,98676.78
2023-01-15T03:20:49.706Z,98686.88
2023-01-15T03:23:55.570Z,98692.16
2023-01-15T03:26:58.394Z,98693.28
2023-01-15T03:30:06.815Z,98732.78
2023-01-15T03:33:11.599Z,98747.00
2023-01-15T03:36:18.200Z,98763.63
2023-01-15T03:39:21.021Z,98757.53
2023-01-15T03:42:46.223Z,98759.59
2023-01-15T03:45:54.280Z,98765.25
2023-01-15T03:49:07.115Z,98775.59
2023-01-15T03:52:18.508Z,98767.50
2023-01-15T03:55:26.520Z,98768.94
2023-01-15T03:58:33.912Z,98758.94
2023-01-15T04:01:41.070Z,98766.66
2023-01-15T04:04:45.338Z,98775.44
2023-01-15T04:07:52.674Z,98769.78
2023-01-15T04:11:01.899Z,98780.56
2023-01-15T04:14:07.510Z,98789.63
2023-01-15T04:17:11.705Z,98790.50
2023-01-15T04:20:14.657Z,98798.88
2023-01-15T04:23:17.422Z,98804.97
2023-01-15T04:26:23.175Z,98807.19
2023-01-15T04:29:33.316Z,98826.75
2023-01-15T04:32:37.520Z,98821.25
2023-01-15T04:35:40.392Z,98833.34
2023-01-15T04:38:43.108Z,98833.44
2023-01-15T04:42:04.016Z,98837.47
2023-01-15T04:45:07.689Z,98853.84
2023-01-15T04:48:12.622Z,98861.59
2023-01-15T04:51:15.435Z,98854.53
2023-01-15T04:54:18.914Z,98862.41
2023-01-15T04:57:24.950Z,98862.75
2023-01-15T05:00:28.043Z,98868.56
2023-01-15T05:03:32.394Z,98867.97
2023-01-15T05:06:35.321Z,98872.53
2023-01-15T05:09:38.409Z,98865.25
2023-01-15T05:12:41.144Z,98885.75
2023-01-15T05:15:46.700Z,98869.06
2023-01-15T05:18:51.493Z,98875.94
2023-01-15T05:21:54.433Z,98879.50
2023-01-15T05:24:57.136Z,98887.16
2023-01-15T05:28:03.002Z,98874.06
2023-01-15T05:31:10.716Z,98876.97
2023-01-15T05:34:14.862Z,98885.94
2023-01-15T05:37:19.751Z,98891.59
2023-01-15T05:40:22.469Z,98894.38
2023-01-15T05:43:27.613Z,98888.72
2023-01-15T05:46:35.006Z,98879.16
2023-01-15T05:49:42.627Z,98888.00
2023-01-15T05:52:45.290Z,98901.94
2023-01-15T05:55:48.105Z,98906.28
2023-01-15T05:58:50.839Z,98905.78
2023-01-15T06:01:54.638Z,98924.31
2023-01-15T06:04:58.664Z,98942.22
2023-01-15T06:08:01.935Z,98942.19
2023-01-15T06:11:08.095Z,98948.88
2023-01-15T06:14:12.399Z,98958.06
2023-01-15T06:17:15.662Z,98960.56
2023-01-15T06:20:19.958Z,98972.25
2023-01-15T06:23:24.942Z,98978.81
2023-01-15T06:26:30.520Z,98966.44
2023-01-15T06:29:33.227Z,98976.75
2023-01-15T06:32:35.923Z,98985.91
2023-01-15T06:35:39.924Z,98977.78
2023-01-15T06:38:43.199Z,98986.41
2023-01-15T06:42:06.602Z,98989.03
2023-01-15T06:45:29.033Z,99009.28
2023-01-15T06:48:38.942Z,99017.16
2023-01-15T06:51:42.978Z,99021.44
2023-01-15T06:54:45.644Z,99030.69
2023-01-15T06:57:48.446Z,99028.94
2023-01-15T07:00:56.024Z,99050.81
2023-01-15T07:03:58.836Z,99066.00
2023-01-15T07:07:03.101Z,99050.19
2023-01-15T07:10:06.532Z,99055.75
2023-01-15T07:13:10.944Z,99046.69
2023-01-15T07:16:27.614Z,99070.16
2023-01-15T07:19:30.401Z,99083.97
2023-01-15T07:22:34.529Z,99076.53
2023-01-15T07:25:38.814Z,99091.09
2023-01-15T07:28:41.506Z,99107.16
2023-01-15T07:31:44.351Z,99108.59
2023-01-15T07:34:47.697Z,99110.19
2023-01-15T07:37:53.482Z,99105.56
2023-01-15T07:41:11.413Z,99143.78
2023-01-15T07:44:31.537Z,99124.59
2023-01-15T07:48:06.256Z,99129.91
2023-01-15T07:51:09.004Z,99130.72
2023-01-15T07:54:13.129Z,99145.25
2023-01-15T07:57:17.924Z,99136.53
2023-01-15T08:00:23.678Z,99139.78
2023-01-15T08:03:26.393Z,99143.28
2023-01-15T08:06:31.320Z,99143.06
2023-01-15T08:09:38.478Z,99141.19
2023-01-15T08:12:59.666Z,99148.31
2023-01-15T08:16:03.191Z,99150.06
2023-01-15T08:19:09.035Z,99155.28
2023-01-15T08:22:12.240Z,99153.53
2023-01-15T08:25:19.446Z,99150.69
2023-01-15T08:28:23.013Z,99160.28
2023-01-15T08:31:26.361Z,99160.38
2023-01-15T08:34:29.126Z,99160.22
2023-01-15T08:37:31.981Z,99152.50
2023-01-15T08:41:01.104Z,99169.41
2023-01-15T08:44:05.296Z,99168.34
2023-01-15T08:47:08.171Z,99177.25
2023-01-15T08:50:11.990Z,99174.63
2023-01-15T08:53:19.124Z,99167.34
2023-01-15T08:56:23.206Z,99178.84
2023-01-15T08:59:25.974Z,99177.03
2023-01-15T09:02:29.817Z,99183.06
2023-01-15T09:05:32.559Z,99187.19
2023-01-15T09:08:35.290Z,99199.56
2023-01-15T09:11:41.040Z,99195.63
2023-01-15T09:14:59.583Z,99201.91
2023-01-15T09:18:07.779Z,99201.22
2023-01-15T09:21:10.610Z,99212.44
2023-01-15T09:24:13.360Z,99207.16
2023-01-15T09:27:17.415Z,99215.38
2023-01-15T09:30:21.818Z,99226.00
2023-01-15T09:33:24.651Z,99226.00
2023-01-15T09:36:31.348Z,99233.97
2023-01-15T09:39:34.262Z,99225.84
2023-01-15T09:42:51.008Z,99238.34
2023-01-15T09:45:58.167Z,99236.47
2023-01-15T09:49:14.518Z,99241.09
2023-01-15T09:52:26.991Z,99249.94
2023-01-15T09:55:32.980Z,99249.19
2023-01-15T09:58:40.287Z,99257.78
2023-01-15T10:01:44.689Z,99261.91
2023-01-15T10:04:53.677Z,99267.47
2023-01-15T10:08:02.215Z,99271.81
2023-01-15T10:11:18.795Z,99282.50
2023-01-15T10:14:39.606Z,99287.97
2023-01-15T10:17:44.175Z,99277.50
2023-01-15T10:21:03.289Z,99270.34
2023-01-15T10:24:11.235Z,99282.88
2023-01-15T10:27:20.853Z,99292.72
2023-01-15T10:30:40.034Z,99293.06
2023-01-15T10:34:00.440Z,99306.59
2023-01-15T10:37:10.866Z,99311.34
2023-01-15T10:40:37.787Z,99324.91
2023-01-15T10:43:51.776Z,99337.66
2023-01-15T10:46:59.854Z,99332.88
2023-01-15T10:50:04.713Z,99330.88
2023-01-15T10:53:14.760Z,99330.88
2023-01-15T10:56:27.466Z,99347.97
2023-01-15T10:59:40.533Z,99345.41
2023-01-15T11:02:48.154Z,99345.28
2023-01-15T11:05:51.146Z,99339.66
2023-01-15T11:09:12.160Z,99327.25
2023-01-15T11:12:40.516Z,99341.34
2023-01-15T11:16:24.152Z,99339.19
2023-01-15T11:19:39.996Z,99326.44
2023-01-15T11:22:56.036Z,99328.88
2023-01-15T11:26:02.064Z,99344.88
2023-01-15T11:29:16.475Z,99323.34
2023-01-15T11:32:29.181Z,99329.75
2023-01-15T11:35:36.029Z,99345.81
2023-01-15T11:38:46.121Z,99349.78
2023-01-15T11:42:06.971Z,99337.38
2023-01-15T11:45:35.433Z,99329.47
2023-01-15T11:49:03.165Z,99322.41
2023-01-15T11:52:10.867Z,99327.78
2023-01-15T11:55:16.479Z,99333.91
2023-01-15T11:58:19.219Z,99330.47
2023-01-15T12:01:25.680Z,99341.13
2023-01-15T12:04:35.698Z,99335.44
2023-01-15T12:07:41.858Z,99346.75
2023-01-15T12:11:25.273Z,99345.59
2023-01-15T12:15:10.927Z,99345.94
2023-01-15T12:18:34.710Z,99353.47
2023-01-15T12:22:00.278Z,99356.72
2023-01-15T12:25:22.961Z,99368.50
2023-01-15T12:28:30.565Z,99353.34
2023-01-15T12:31:39.031Z,99349.88
2023-01-15T12:34:47.008Z,99331.56
2023-01-15T12:37:57.621Z,99330.41
2023-01-15T12:41:06.282Z,99349.84
2023-01-15T12:44:28.955Z,99348.91
2023-01-15T12:47:38.064Z,99360.19
2023-01-15T12:50:45.715Z,99353.22
2023-01-15T12:53:52.483Z,99338.84
2023-01-15T12:57:02.950Z,99346.16
2023-01-15T13:00:14.602Z,99337.19
2023-01-15T13:03:24.630Z,99338.63
2023-01-15T13:06:34.939Z,99337.25
2023-01-15T13:09:45.154Z,99332.47
2023-01-15T13:12:52.917Z,99332.19
2023-01-15T13:16:21.170Z,99328.84
2023-01-15T13:19:40.848Z,99338.28
2023-01-15T13:22:53.500Z,99332.09
2023-01-15T13:26:06.320Z,99341.13
2023-01-15T13:29:19.290Z,99329.84
2023-01-15T13:32:28.890Z,99329.59
2023-01-15T13:35:36.712Z,99326.75
2023-01-15T13:38:43.051Z,99343.81
2023-01-15T13:42:09.857Z,99335.44
2023-01-15T13:45:29.014Z,99333.50
2023-01-15T13:48:35.566Z,99351.06
2023-01-15T13:51:50.252Z,99355.22
2023-01-15T13:54:54.042Z,99362.53
2023-01-15T13:57:56.771Z,99361.69
2023-01-15T14:01:09.801Z,99379.81
2023-01-15T14:04:15.840Z,99372.69
2023-01-15T14:07:42.778Z,99385.09
2023-01-15T14:10:45.597Z,99375.00
2023-01-15T14:14:03.307Z,99391.41
2023-01-15T14:17:41.451Z,99406.88
2023-01-15T14:21:12.807Z,99396.22
2023-01-15T14:24:41.064Z,99403.72
2023-01-15T14:27:55.488Z,99404.72
2023-01-15T14:31:16.303Z,99421.13
2023-01-15T14:34:24.035Z,99399.00
2023-01-15T14:37:31.700Z,99406.91
2023-01-15T14:40:36.559Z,99407.88
2023-01-15T14:43:43.009Z,99397.34
2023-01-15T14:47:00.831Z,99394.59
2023-01-15T14:50:34.900Z,99400.03
2023-01-15T14:53:45.182Z,99402.78
2023-01-15T14:57:04.396Z,99405.31
2023-01-15T15:00:11.016Z,99407.16
2023-01-15T15:03:18.408Z,99401.28
2023-01-15T15:06:22.904Z,99414.56
2023-01-15T15:09:33.886Z,99411.00
2023-01-15T15:12:41.557Z,99407.34
2023-01-15T15:15:51.759Z,99440.72
2023-01-15T15:19:01.998Z,99424.75
2023-01-15T15:22:08.771Z,99433.63
2023-01-15T15:25:19.958Z,99441.53
2023-01-15T15:28:22.649Z,99446.25
2023-01-15T15:31:29.482Z,99453.19
2023-01-15T15:34:35.359Z,99450.69
2023-01-15T15:37:45.476Z,99440.13
2023-01-15T15:40:59.089Z,99445.63
2023-01-15T15:44:27.969Z,99440.50
2023-01-15T15:51:30.049Z,99436.06
2023-01-15T15:54:36.576Z,99435.81
2023-01-15T15:57:39.343Z,99440.97
2023-01-15T16:00:43.240Z,99447.19
2023-01-15T16:03:49.943Z,99437.44
2023-01-15T16:06:55.712Z,99434.97
2023-01-15T16:10:01.963Z,99437.50
2023-01-15T16:13:08.514Z,99423.13
2023-01-15T16:16:13.064Z,99435.69
2023-01-15T16:19:22.826Z,99430.22
2023-01-15T16:22:27.777Z,99427.69
2023-01-15T16:25:35.622Z,99427.69
2023-01-15T16:28:43.040Z,99416.06
2023-01-15T16:32:12.445Z,99417.34
2023-01-15T16:35:20.537Z,99427.38
2023-01-15T16:38:23.216Z,99415.09
2023-01-15T16:41:35.479Z,99427.09
2023-01-15T16:44:44.115Z,99429.91
2023-01-15T16:48:03.212Z,99411.97
2023-01-15T16:51:31.563Z,99412.53
2023-01-15T16:54:46.786Z,99407.22
2023-01-15T16:58:19.742Z,99403.59
2023-01-15T17:01:42.031Z,99405.34
2023-01-15T17:04:46.035Z,99400.63
2023-01-15T17:08:00.900Z,99406.81
2023-01-15T17:11:06.245Z,99379.72
2023-01-15T17:14:12.275Z,99393.00
2023-01-15T17:17:28.893Z,99391.97
2023-01-15T17:20:38.347Z,99388.66
2023-01-15T17:23:42.871Z,99385.84
2023-01-15T17:26:45.950Z,99384.03
2023-01-15T17:29:50.208Z,99366.81
2023-01-15T17:32:55.124Z,99363.19
2023-01-15T17:36:00.730Z,99366.81
2023-01-15T17:39:03.560Z,99365.34
2023-01-15T17:42:14.809Z,99371.97
2023-01-15T17:45:24.725Z,99348.84
2023-01-15T17:48:27.422Z,99359.78
2023-01-15T17:51:30.556Z,99350.00
2023-01-15T17:54:50.843Z,99365.34
2023-01-15T17:58:11.001Z,99360.91
2023-01-15T18:01:37.543Z,99368.00
2023-01-15T18:05:02.107Z,99367.16
2023-01-15T18:08:08.586Z,99373.31
2023-01-15T18:11:11.678Z,99352.22
2023-01-15T18:14:14.611Z,99350.34
2023-01-15T18:17:18.701Z,99356.94
2023-01-15T18:20:21.659Z,99353.25
2023-01-15T18:23:26.073Z,99345.94
2023-01-15T18:26:36.968Z,99336.94
2023-01-15T18:29:40.373Z,99332.91
2023-01-15T18:32:45.760Z,99314.47
2023-01-15T18:35:48.452Z,99332.63
2023-01-15T18:38:51.247Z,99322.16
2023-01-15T18:42:11.607Z,99331.19
2023-01-15T18:45:32.153Z,99321.47
2023-01-15T18:48:36.181Z,99329.66
2023-01-15T18:51:38.864Z,99326.13
2023-01-15T18:54:41.632Z,99262.91
2023-01-15T18:57:46.666Z,99333.16
2023-01-15T19:00:49.367Z,99334.03
2023-01-15T19:03:53.556Z,99345.06
2023-01-15T19:06:57.185Z,99336.19
2023-01-15T19:10:01.841Z,99317.50
2023-01-15T19:13:05.572Z,99334.25
2023-01-15T19:16:26.158Z,99330.41
2023-01-15T19:19:30.370Z,99329.38
2023-01-15T19:22:50.426Z,99320.09
2023-01-15T19:25:53.177Z,99321.88
2023-01-15T19:28:55.856Z,99317.41
2023-01-15T19:31:59.291Z,99326.59
2023-01-15T19:35:03.385Z,99325.00
2023-01-15T19:38:08.404Z,99286.44
2023-01-15T19:41:33.397Z,99317.19
2023-01-15T19:44:53.608Z,99321.59
2023-01-15T19:48:14.360Z,99326.34
2023-01-15T19:51:18.387Z,99319.38
2023-01-15T19:54:42.871Z,99326.00
2023-01-15T19:57:47.874Z,99337.06
2023-01-15T20:00:52.759Z,99321.19
2023-01-15T20:03:56.175Z,99323.75
2023-01-15T20:07:00.225Z,99321.50
2023-01-15T20:10:03.620Z,99313.94
2023-01-15T20:13:23.813Z,99295.75
2023-01-15T20:16:28.093Z,99289.34
2023-01-15T20:19:31.109Z,99291.44
2023-01-15T20:22:35.155Z,99300.63
2023-01-15T20:25:41.346Z,99289.13
2023-01-15T20:28:47.498Z,99284.00
2023-01-15T20:31:50.203Z,99276.16
2023-01-15T20:34:53.069Z,99264.03
2023-01-15T20:37:57.085Z,99273.13
2023-01-15T20:41:20.245Z,99255.78
2023-01-15T20:44:48.672Z,99261.16
2023-01-15T20:48:09.011Z,99252.97
2023-01-15T20:51:12.852Z,99254.78
2023-01-15T20:54:17.028Z,99243.31
2023-01-15T20:57:19.820Z,99234.81
2023-01-15T21:00:23.195Z,99233.06
2023-01-15T21:03:26.172Z,99241.31
2023-01-15T21:06:29.005Z,99242.53
2023-01-15T21:09:33.088Z,99239.66
2023-01-15T21:12:35.984Z,99241.44
2023-01-15T21:15:38.653Z,99229.56
2023-01-15T21:18:45.139Z,99221.38
2023-01-15T21:21:47.813Z,99213.31
2023-01-15T21:24:51.866Z,99216.94
2023-01-15T21:27:54.851Z,99198.25
2023-01-15T21:30:58.470Z,99214.16
2023-01-15T21:34:01.460Z,99189.72
2023-01-15T21:37:04.198Z,99189.59
2023-01-15T21:40:10.111Z,99195.03
2023-01-15T21:43:30.287Z,99188.63
2023-01-15T21:46:33.127Z,99188.38
2023-01-15T21:49:36.876Z,99177.03
2023-01-15T21:52:39.915Z,99170.34
2023-01-15T21:55:50.978Z,99165.13
2023-01-15T21:58:59.803Z,99163.28
2023-01-15T22:02:03.563Z,99158.88
2023-01-15T22:05:08.259Z,99157.25
2023-01-15T22:08:11.803Z,99153.72
2023-01-15T22:11:15.829Z,99148.31
2023-01-15T22:14:21.684Z,99147.50
2023-01-15T22:17:26.342Z,99135.06
2023-01-15T22:20:29.705Z,99139.81
2023-01-15T22:23:38.499Z,99129.41
2023-01-15T22:26:43.539Z,99119.75
2023-01-15T22:29:46.253Z,99120.00
2023-01-15T22:32:51.470Z,99112.09
2023-01-15T22:35:58.620Z,99106.84
2023-01-15T22:39:01.310Z,99100.00
2023-01-15T22:42:22.793Z,99104.50
2023-01-15T22:45:33.316Z,99099.31
2023-01-15T22:48:39.108Z,99097.47
2023-01-15T22:51:41.849Z,99098.28
2023-01-15T22:54:47.979Z,99100.03
2023-01-15T22:57:52.023Z,99070.13
2023-01-15T23:00:55.919Z,99089.59
2023-01-15T23:03:58.683Z,99079.47
2023-01-15T23:07:02.069Z,99067.66
2023-01-15T23:10:05.940Z,99069.41
2023-01-15T23:13:14.522Z,99069.28
2023-01-15T23:16:17.886Z,99056.03
2023-01-15T23:19:21.289Z,99063.38
2023-01-15T23:22:24.060Z,99049.66
2023-01-15T23:25:26.778Z,99040.66
2023-01-15T23:28:31.010Z,99032.59
2023-01-15T23:31:34.164Z,99044.13
2023-01-15T23:34:39.068Z,99033.19
2023-01-15T23:37:41.758Z,99035.00
2023-01-15T23:40:45.755Z,99014.16
2023-01-15T23:44:16.335Z,99024.13
2023-01-15T23:47:22.326Z,99015.03
2023-01-15T23:50:25.881Z,99017.66
2023-01-15T23:53:28.561Z,99007.84
2023-01-15T23:56:32.505Z,98986.28
2023-01-15T23:59:36.585Z,98978.09
